METAR Data
IDs: Format: Raw Decoded Include TAF

Data at: 0221 UTC 23 Sep 2018

METAR for:KLUK (Cincinnati/Lunken Ar, OH, US)
Text:KLUK 230153Z 05003KT 9SM FEW013 BKN060 16/16 A3019 RMK AO2 SLP220 T01560156
Temperature: 15.6°C ( 60°F)
Dewpoint: 15.6°C ( 60°F) [RH = 100%]
Pressure (altimeter):30.19 inches Hg (1022.4 mb) [Sea level pressure: 1022.0 mb]
Winds:from the NE (50 degrees) at 3 MPH (3 knots; 1.5 m/s)
Visibility: 9 sm ( 14 km)
Ceiling:6000 feet AGL
Clouds: few clouds at 1300 feet AGL, broken clouds at 6000 feet AGL